sensor_id;sensor_type;location;lat;lon;timestamp;temperature;humidity
61000;SHT31;46879;45.658;11.814;2023-09-18T00:04:59;25.67;70.22
61000;SHT31;46879;45.658;11.814;2023-09-18T00:10:00;25.65;70.53
61000;SHT31;46879;45.658;11.814;2023-09-18T00:15:01;25.67;70.61
61000;SHT31;46879;45.658;11.814;2023-09-18T00:20:02;25.67;69.92
61000;SHT31;46879;45.658;11.814;2023-09-18T00:25:06;25.67;69.93
61000;SHT31;46879;45.658;11.814;2023-09-18T00:30:07;25.67;69.88
61000;SHT31;46879;45.658;11.814;2023-09-18T00:35:07;25.67;70.15
61000;SHT31;46879;45.658;11.814;2023-09-18T00:40:09;25.65;70.01
61000;SHT31;46879;45.658;11.814;2023-09-18T00:45:09;25.65;70.44
61000;SHT31;46879;45.658;11.814;2023-09-18T00:50:12;25.63;70.50
61000;SHT31;46879;45.658;11.814;2023-09-18T00:55:13;25.66;70.67
61000;SHT31;46879;45.658;11.814;2023-09-18T01:00:15;25.66;70.28
61000;SHT31;46879;45.658;11.814;2023-09-18T01:05:17;25.62;69.86
61000;SHT31;46879;45.658;11.814;2023-09-18T01:10:18;25.65;69.97
61000;SHT31;46879;45.658;11.814;2023-09-18T01:15:30;25.66;70.13
61000;SHT31;46879;45.658;11.814;2023-09-18T01:20:30;25.63;70.13
61000;SHT31;46879;45.658;11.814;2023-09-18T01:25:31;25.62;70.13
61000;SHT31;46879;45.658;11.814;2023-09-18T01:30:33;25.63;70.24
61000;SHT31;46879;45.658;11.814;2023-09-18T01:35:36;25.62;70.30
61000;SHT31;46879;45.658;11.814;2023-09-18T01:40:37;25.62;70.16
61000;SHT31;46879;45.658;11.814;2023-09-18T01:45:39;25.62;70.16
61000;SHT31;46879;45.658;11.814;2023-09-18T01:50:40;25.62;70.24
61000;SHT31;46879;45.658;11.814;2023-09-18T01:55:40;25.62;70.60
61000;SHT31;46879;45.658;11.814;2023-09-18T02:00:42;25.58;70.45
61000;SHT31;46879;45.658;11.814;2023-09-18T02:05:42;25.59;70.67
61000;SHT31;46879;45.658;11.814;2023-09-18T02:10:43;25.59;70.64
61000;SHT31;46879;45.658;11.814;2023-09-18T02:15:44;25.59;70.75
61000;SHT31;46879;45.658;11.814;2023-09-18T02:20:45;25.59;70.53
61000;SHT31;46879;45.658;11.814;2023-09-18T02:25:56;25.59;70.54
61000;SHT31;46879;45.658;11.814;2023-09-18T02:30:57;25.56;70.55
61000;SHT31;46879;45.658;11.814;2023-09-18T02:35:58;25.59;70.55
61000;SHT31;46879;45.658;11.814;2023-09-18T02:40:59;25.58;70.53
61000;SHT31;46879;45.658;11.814;2023-09-18T02:45:59;25.58;70.40
61000;SHT31;46879;45.658;11.814;2023-09-18T02:51:01;25.56;70.32
61000;SHT31;46879;45.658;11.814;2023-09-18T02:56:02;25.56;70.26
61000;SHT31;46879;45.658;11.814;2023-09-18T03:01:03;25.56;70.11
61000;SHT31;46879;45.658;11.814;2023-09-18T03:06:05;25.56;70.23
61000;SHT31;46879;45.658;11.814;2023-09-18T03:11:14;25.55;70.18
61000;SHT31;46879;45.658;11.814;2023-09-18T03:16:15;25.53;70.01
61000;SHT31;46879;45.658;11.814;2023-09-18T03:21:15;25.55;70.05
61000;SHT31;46879;45.658;11.814;2023-09-18T03:26:16;25.55;69.81
61000;SHT31;46879;45.658;11.814;2023-09-18T03:31:16;25.55;69.65
61000;SHT31;46879;45.658;11.814;2023-09-18T03:36:17;25.50;69.81
61000;SHT31;46879;45.658;11.814;2023-09-18T03:41:21;25.53;69.78
61000;SHT31;46879;45.658;11.814;2023-09-18T03:46:21;25.50;69.71
61000;SHT31;46879;45.658;11.814;2023-09-18T03:51:22;25.52;69.81
61000;SHT31;46879;45.658;11.814;2023-09-18T03:56:22;25.52;69.76
61000;SHT31;46879;45.658;11.814;2023-09-18T04:01:23;25.49;69.63
61000;SHT31;46879;45.658;11.814;2023-09-18T04:06:23;25.50;69.76
61000;SHT31;46879;45.658;11.814;2023-09-18T04:11:24;25.50;69.72
61000;SHT31;46879;45.658;11.814;2023-09-18T04:16:26;25.49;69.78
61000;SHT31;46879;45.658;11.814;2023-09-18T04:21:28;25.47;69.68
61000;SHT31;46879;45.658;11.814;2023-09-18T04:26:29;25.46;69.76
61000;SHT31;46879;45.658;11.814;2023-09-18T04:31:31;25.49;69.66
61000;SHT31;46879;45.658;11.814;2023-09-18T04:36:32;25.49;69.81
61000;SHT31;46879;45.658;11.814;2023-09-18T04:41:33;25.47;69.81
61000;SHT31;46879;45.658;11.814;2023-09-18T04:46:34;25.47;69.50
61000;SHT31;46879;45.658;11.814;2023-09-18T04:51:38;25.49;69.50
61000;SHT31;46879;45.658;11.814;2023-09-18T04:56:39;25.50;69.54
61000;SHT31;46879;45.658;11.814;2023-09-18T05:01:40;25.52;69.44
61000;SHT31;46879;45.658;11.814;2023-09-18T05:06:40;25.50;69.76
61000;SHT31;46879;45.658;11.814;2023-09-18T05:11:42;25.52;69.66
61000;SHT31;46879;45.658;11.814;2023-09-18T05:16:42;25.50;69.48
61000;SHT31;46879;45.658;11.814;2023-09-18T05:21:43;25.53;69.66
61000;SHT31;46879;45.658;11.814;2023-09-18T05:26:44;25.53;69.21
61000;SHT31;46879;45.658;11.814;2023-09-18T05:31:44;25.53;69.40
61000;SHT31;46879;45.658;11.814;2023-09-18T05:36:46;25.53;69.57
61000;SHT31;46879;45.658;11.814;2023-09-18T05:41:46;25.53;69.49
61000;SHT31;46879;45.658;11.814;2023-09-18T05:46:47;25.53;69.54
61000;SHT31;46879;45.658;11.814;2023-09-18T05:51:48;25.53;69.34
61000;SHT31;46879;45.658;11.814;2023-09-18T05:56:49;25.53;69.09
61000;SHT31;46879;45.658;11.814;2023-09-18T06:01:49;25.53;69.03
61000;SHT31;46879;45.658;11.814;2023-09-18T06:06:50;25.52;68.61
61000;SHT31;46879;45.658;11.814;2023-09-18T06:11:52;25.55;68.57
61000;SHT31;46879;45.658;11.814;2023-09-18T06:16:53;25.55;68.75
61000;SHT31;46879;45.658;11.814;2023-09-18T06:21:53;25.55;68.65
61000;SHT31;46879;45.658;11.814;2023-09-18T06:26:54;25.55;68.55
61000;SHT31;46879;45.658;11.814;2023-09-18T06:31:55;25.53;68.60
61000;SHT31;46879;45.658;11.814;2023-09-18T06:36:55;25.53;68.51
61000;SHT31;46879;45.658;11.814;2023-09-18T06:41:56;25.52;68.41
61000;SHT31;46879;45.658;11.814;2023-09-18T06:46:56;25.52;68.34
61000;SHT31;46879;45.658;11.814;2023-09-18T06:51:57;25.53;68.22
61000;SHT31;46879;45.658;11.814;2023-09-18T06:56:58;25.55;68.16
61000;SHT31;46879;45.658;11.814;2023-09-18T07:02:00;25.53;68.09
61000;SHT31;46879;45.658;11.814;2023-09-18T07:07:01;25.52;68.06
61000;SHT31;46879;45.658;11.814;2023-09-18T07:12:02;25.52;68.00
61000;SHT31;46879;45.658;11.814;2023-09-18T07:17:03;25.53;67.98
61000;SHT31;46879;45.658;11.814;2023-09-18T07:22:04;25.53;67.95
61000;SHT31;46879;45.658;11.814;2023-09-18T07:27:05;25.52;67.91
61000;SHT31;46879;45.658;11.814;2023-09-18T07:32:05;25.55;67.83
61000;SHT31;46879;45.658;11.814;2023-09-18T07:37:06;25.52;67.80
61000;SHT31;46879;45.658;11.814;2023-09-18T07:42:06;25.55;67.74
61000;SHT31;46879;45.658;11.814;2023-09-18T07:47:07;25.55;67.74
61000;SHT31;46879;45.658;11.814;2023-09-18T07:52:07;25.52;67.66
61000;SHT31;46879;45.658;11.814;2023-09-18T07:57:09;25.55;67.64
61000;SHT31;46879;45.658;11.814;2023-09-18T08:02:09;25.53;67.65
61000;SHT31;46879;45.658;11.814;2023-09-18T08:07:10;25.52;67.62
61000;SHT31;46879;45.658;11.814;2023-09-18T08:12:12;25.52;67.68
61000;SHT31;46879;45.658;11.814;2023-09-18T08:17:13;25.53;67.62
61000;SHT31;46879;45.658;11.814;2023-09-18T08:22:13;25.52;67.66
61000;SHT31;46879;45.658;11.814;2023-09-18T08:27:17;25.52;67.60
61000;SHT31;46879;45.658;11.814;2023-09-18T08:32:17;25.55;67.60
61000;SHT31;46879;45.658;11.814;2023-09-18T08:37:18;25.53;67.55
61000;SHT31;46879;45.658;11.814;2023-09-18T08:42:20;25.52;67.57
61000;SHT31;46879;45.658;11.814;2023-09-18T08:47:22;25.53;67.51
61000;SHT31;46879;45.658;11.814;2023-09-18T08:52:23;25.55;67.52
61000;SHT31;46879;45.658;11.814;2023-09-18T08:57:24;25.53;67.57
61000;SHT31;46879;45.658;11.814;2023-09-18T09:02:26;25.52;67.55
61000;SHT31;46879;45.658;11.814;2023-09-18T09:07:26;25.55;67.60
61000;SHT31;46879;45.658;11.814;2023-09-18T09:18:02;25.53;67.64
61000;SHT31;46879;45.658;11.814;2023-09-18T09:23:08;25.53;67.63
61000;SHT31;46879;45.658;11.814;2023-09-18T09:28:09;25.53;67.86
61000;SHT31;46879;45.658;11.814;2023-09-18T09:33:12;25.53;67.80
61000;SHT31;46879;45.658;11.814;2023-09-18T09:38:13;25.55;67.86
61000;SHT31;46879;45.658;11.814;2023-09-18T09:43:16;25.55;67.85
61000;SHT31;46879;45.658;11.814;2023-09-18T09:48:18;25.55;67.87
61000;SHT31;46879;45.658;11.814;2023-09-18T09:53:19;25.55;67.91
61000;SHT31;46879;45.658;11.814;2023-09-18T09:58:40;25.53;67.88
61000;SHT31;46879;45.658;11.814;2023-09-18T10:03:45;25.55;67.92
61000;SHT31;46879;45.658;11.814;2023-09-18T10:08:47;25.52;67.98
61000;SHT31;46879;45.658;11.814;2023-09-18T10:14:04;25.55;67.83
61000;SHT31;46879;45.658;11.814;2023-09-18T10:24:40;25.55;67.95
61000;SHT31;46879;45.658;11.814;2023-09-18T10:29:45;25.58;68.03
61000;SHT31;46879;45.658;11.814;2023-09-18T10:34:49;25.55;68.01
61000;SHT31;46879;45.658;11.814;2023-09-18T10:39:51;25.56;68.04
61000;SHT31;46879;45.658;11.814;2023-09-18T10:44:53;25.55;68.10
61000;SHT31;46879;45.658;11.814;2023-09-18T10:49:54;25.55;67.99
61000;SHT31;46879;45.658;11.814;2023-09-18T10:54:55;25.55;68.03
61000;SHT31;46879;45.658;11.814;2023-09-18T10:59:56;25.56;68.09
61000;SHT31;46879;45.658;11.814;2023-09-18T11:04:58;25.56;68.13
61000;SHT31;46879;45.658;11.814;2023-09-18T11:09:58;25.55;68.09
61000;SHT31;46879;45.658;11.814;2023-09-18T11:15:00;25.56;68.02
61000;SHT31;46879;45.658;11.814;2023-09-18T11:20:24;25.55;67.84
61000;SHT31;46879;45.658;11.814;2023-09-18T11:25:39;25.56;68.04
61000;SHT31;46879;45.658;11.814;2023-09-18T11:30:54;25.55;68.09
61000;SHT31;46879;45.658;11.814;2023-09-18T11:36:12;25.56;68.16
61000;SHT31;46879;45.658;11.814;2023-09-18T11:46:26;25.58;68.37
61000;SHT31;46879;45.658;11.814;2023-09-18T11:51:30;25.56;68.37
61000;SHT31;46879;45.658;11.814;2023-09-18T11:56:32;25.56;68.49
61000;SHT31;46879;45.658;11.814;2023-09-18T12:01:33;25.58;68.43
61000;SHT31;46879;45.658;11.814;2023-09-18T12:06:38;25.55;68.52
61000;SHT31;46879;45.658;11.814;2023-09-18T12:11:41;25.56;68.60
61000;SHT31;46879;45.658;11.814;2023-09-18T12:16:43;25.58;68.86
61000;SHT31;46879;45.658;11.814;2023-09-18T12:21:46;25.58;69.34
61000;SHT31;46879;45.658;11.814;2023-09-18T12:26:51;25.58;69.39
61000;SHT31;46879;45.658;11.814;2023-09-18T12:31:52;25.58;69.56
61000;SHT31;46879;45.658;11.814;2023-09-18T12:36:52;25.59;69.90
61000;SHT31;46879;45.658;11.814;2023-09-18T12:41:53;25.58;69.99
61000;SHT31;46879;45.658;11.814;2023-09-18T12:46:54;25.58;70.08
61000;SHT31;46879;45.658;11.814;2023-09-18T12:51:59;25.59;70.29
61000;SHT31;46879;45.658;11.814;2023-09-18T12:57:00;25.59;70.36
61000;SHT31;46879;45.658;11.814;2023-09-18T13:02:05;25.61;70.33
61000;SHT31;46879;45.658;11.814;2023-09-18T13:07:15;25.62;70.33
61000;SHT31;46879;45.658;11.814;2023-09-18T13:12:15;25.62;70.71
61000;SHT31;46879;45.658;11.814;2023-09-18T13:17:16;25.63;70.85
61000;SHT31;46879;45.658;11.814;2023-09-18T13:22:26;25.61;70.66
61000;SHT31;46879;45.658;11.814;2023-09-18T13:27:26;25.61;70.39
61000;SHT31;46879;45.658;11.814;2023-09-18T13:32:27;25.61;70.69
61000;SHT31;46879;45.658;11.814;2023-09-18T13:37:28;25.62;70.62
61000;SHT31;46879;45.658;11.814;2023-09-18T13:42:29;25.62;70.54
61000;SHT31;46879;45.658;11.814;2023-09-18T13:47:30;25.62;70.44
61000;SHT31;46879;45.658;11.814;2023-09-18T13:52:33;25.62;70.43
61000;SHT31;46879;45.658;11.814;2023-09-18T13:57:34;25.62;70.31
61000;SHT31;46879;45.658;11.814;2023-09-18T14:02:35;25.62;70.32
61000;SHT31;46879;45.658;11.814;2023-09-18T14:07:37;25.62;70.41
61000;SHT31;46879;45.658;11.814;2023-09-18T14:12:42;25.63;70.32
61000;SHT31;46879;45.658;11.814;2023-09-18T14:17:43;25.63;70.30
61000;SHT31;46879;45.658;11.814;2023-09-18T14:22:44;25.62;70.21
61000;SHT31;46879;45.658;11.814;2023-09-18T14:27:45;25.63;70.17
61000;SHT31;46879;45.658;11.814;2023-09-18T14:32:45;25.65;70.21
61000;SHT31;46879;45.658;11.814;2023-09-18T14:37:46;25.63;70.17
61000;SHT31;46879;45.658;11.814;2023-09-18T14:42:47;25.63;70.29
61000;SHT31;46879;45.658;11.814;2023-09-18T14:47:47;25.65;70.24
61000;SHT31;46879;45.658;11.814;2023-09-18T14:52:48;25.66;70.36
61000;SHT31;46879;45.658;11.814;2023-09-18T14:57:49;25.65;70.31
61000;SHT31;46879;45.658;11.814;2023-09-18T15:02:50;25.66;70.26
61000;SHT31;46879;45.658;11.814;2023-09-18T15:07:50;25.63;70.33
61000;SHT31;46879;45.658;11.814;2023-09-18T15:12:52;25.63;70.14
61000;SHT31;46879;45.658;11.814;2023-09-18T15:17:52;25.65;70.08
61000;SHT31;46879;45.658;11.814;2023-09-18T15:22:53;25.65;70.16
61000;SHT31;46879;45.658;11.814;2023-09-18T15:27:56;25.63;70.09
61000;SHT31;46879;45.658;11.814;2023-09-18T15:32:56;25.63;70.02
61000;SHT31;46879;45.658;11.814;2023-09-18T15:37:57;25.66;69.99
61000;SHT31;46879;45.658;11.814;2023-09-18T15:42:58;25.65;69.83
61000;SHT31;46879;45.658;11.814;2023-09-18T15:47:58;25.65;69.74
61000;SHT31;46879;45.658;11.814;2023-09-18T15:52:59;25.66;69.70
61000;SHT31;46879;45.658;11.814;2023-09-18T15:57:59;25.66;69.72
61000;SHT31;46879;45.658;11.814;2023-09-18T16:03:00;25.63;69.62
61000;SHT31;46879;45.658;11.814;2023-09-18T16:08:01;25.66;69.58
61000;SHT31;46879;45.658;11.814;2023-09-18T16:13:04;25.63;69.46
61000;SHT31;46879;45.658;11.814;2023-09-18T16:18:05;25.63;69.43
61000;SHT31;46879;45.658;11.814;2023-09-18T16:23:06;25.63;69.44
61000;SHT31;46879;45.658;11.814;2023-09-18T16:28:06;25.66;69.36
61000;SHT31;46879;45.658;11.814;2023-09-18T16:33:07;25.65;69.38
61000;SHT31;46879;45.658;11.814;2023-09-18T16:38:08;25.65;69.36
61000;SHT31;46879;45.658;11.814;2023-09-18T16:43:08;25.66;69.65
61000;SHT31;46879;45.658;11.814;2023-09-18T16:48:11;25.67;69.73
61000;SHT31;46879;45.658;11.814;2023-09-18T16:53:11;25.66;69.57
61000;SHT31;46879;45.658;11.814;2023-09-18T16:58:12;25.65;69.79
61000;SHT31;46879;45.658;11.814;2023-09-18T17:03:12;25.66;70.08
61000;SHT31;46879;45.658;11.814;2023-09-18T17:08:13;25.66;70.20
61000;SHT31;46879;45.658;11.814;2023-09-18T17:13:14;25.63;70.63
61000;SHT31;46879;45.658;11.814;2023-09-18T17:18:15;25.63;70.78
61000;SHT31;46879;45.658;11.814;2023-09-18T17:23:15;25.66;71.21
61000;SHT31;46879;45.658;11.814;2023-09-18T17:28:16;25.66;72.01
61000;SHT31;46879;45.658;11.814;2023-09-18T17:33:17;25.66;72.31
61000;SHT31;46879;45.658;11.814;2023-09-18T17:38:18;25.65;72.16
61000;SHT31;46879;45.658;11.814;2023-09-18T17:43:18;25.67;72.92
61000;SHT31;46879;45.658;11.814;2023-09-18T17:48:19;25.66;73.42
61000;SHT31;46879;45.658;11.814;2023-09-18T17:53:20;25.65;73.20
61000;SHT31;46879;45.658;11.814;2023-09-18T17:58:21;25.69;73.77
61000;SHT31;46879;45.658;11.814;2023-09-18T18:03:21;25.67;73.97
61000;SHT31;46879;45.658;11.814;2023-09-18T18:08:22;25.67;73.76
61000;SHT31;46879;45.658;11.814;2023-09-18T18:13:23;25.69;73.80
61000;SHT31;46879;45.658;11.814;2023-09-18T18:18:23;25.69;73.13
61000;SHT31;46879;45.658;11.814;2023-09-18T18:23:24;25.69;72.85
61000;SHT31;46879;45.658;11.814;2023-09-18T18:28:24;25.67;73.09
61000;SHT31;46879;45.658;11.814;2023-09-18T18:33:25;25.67;73.88
61000;SHT31;46879;45.658;11.814;2023-09-18T18:38:26;25.67;73.25
61000;SHT31;46879;45.658;11.814;2023-09-18T18:43:27;25.66;73.09
61000;SHT31;46879;45.658;11.814;2023-09-18T18:48:27;25.66;73.07
61000;SHT31;46879;45.658;11.814;2023-09-18T18:53:28;25.66;72.77
61000;SHT31;46879;45.658;11.814;2023-09-18T18:58:30;25.65;72.88
61000;SHT31;46879;45.658;11.814;2023-09-18T19:03:33;25.67;72.73
61000;SHT31;46879;45.658;11.814;2023-09-18T19:08:36;25.65;72.51
61000;SHT31;46879;45.658;11.814;2023-09-18T19:13:37;25.66;72.31
61000;SHT31;46879;45.658;11.814;2023-09-18T19:18:42;25.67;72.56
61000;SHT31;46879;45.658;11.814;2023-09-18T19:23:43;25.73;72.37
61000;SHT31;46879;45.658;11.814;2023-09-18T19:28:45;25.77;72.73
61000;SHT31;46879;45.658;11.814;2023-09-18T19:33:45;25.80;73.08
61000;SHT31;46879;45.658;11.814;2023-09-18T19:38:46;25.80;72.54
61000;SHT31;46879;45.658;11.814;2023-09-18T19:43:46;25.80;72.57
61000;SHT31;46879;45.658;11.814;2023-09-18T19:48:47;25.79;72.35
61000;SHT31;46879;45.658;11.814;2023-09-18T19:53:48;25.77;72.17
61000;SHT31;46879;45.658;11.814;2023-09-18T19:58:48;25.73;72.41
61000;SHT31;46879;45.658;11.814;2023-09-18T20:03:49;25.74;72.12
61000;SHT31;46879;45.658;11.814;2023-09-18T20:08:49;25.73;72.26
61000;SHT31;46879;45.658;11.814;2023-09-18T20:13:51;25.72;72.51
61000;SHT31;46879;45.658;11.814;2023-09-18T20:18:51;25.66;72.38
61000;SHT31;46879;45.658;11.814;2023-09-18T20:23:53;25.63;72.80
61000;SHT31;46879;45.658;11.814;2023-09-18T20:28:53;25.65;72.51
61000;SHT31;46879;45.658;11.814;2023-09-18T20:33:54;25.62;72.76
61000;SHT31;46879;45.658;11.814;2023-09-18T20:38:54;25.55;73.55
61000;SHT31;46879;45.658;11.814;2023-09-18T20:43:55;25.38;74.53
61000;SHT31;46879;45.658;11.814;2023-09-18T20:48:56;25.17;74.29
61000;SHT31;46879;45.658;11.814;2023-09-18T20:53:56;25.34;73.24
61000;SHT31;46879;45.658;11.814;2023-09-18T20:59:02;25.24;72.84
61000;SHT31;46879;45.658;11.814;2023-09-18T21:04:03;25.32;72.39
61000;SHT31;46879;45.658;11.814;2023-09-18T21:09:04;25.17;72.38
61000;SHT31;46879;45.658;11.814;2023-09-18T21:14:07;24.87;73.11
61000;SHT31;46879;45.658;11.814;2023-09-18T21:19:08;25.07;72.66
61000;SHT31;46879;45.658;11.814;2023-09-18T21:24:09;25.19;71.99
61000;SHT31;46879;45.658;11.814;2023-09-18T21:29:09;25.22;71.78
61000;SHT31;46879;45.658;11.814;2023-09-18T21:34:10;25.26;71.97
61000;SHT31;46879;45.658;11.814;2023-09-18T21:39:11;25.26;71.83
61000;SHT31;46879;45.658;11.814;2023-09-18T21:44:12;25.31;71.60
61000;SHT31;46879;45.658;11.814;2023-09-18T21:49:13;25.39;71.27
61000;SHT31;46879;45.658;11.814;2023-09-18T21:54:14;25.41;71.42
61000;SHT31;46879;45.658;11.814;2023-09-18T21:59:15;25.49;71.18
61000;SHT31;46879;45.658;11.814;2023-09-18T22:04:15;25.50;71.73
61000;SHT31;46879;45.658;11.814;2023-09-18T22:09:17;25.47;72.13
61000;SHT31;46879;45.658;11.814;2023-09-18T22:14:20;25.46;72.01
61000;SHT31;46879;45.658;11.814;2023-09-18T22:19:22;25.45;71.90
61000;SHT31;46879;45.658;11.814;2023-09-18T22:24:22;25.46;71.80
61000;SHT31;46879;45.658;11.814;2023-09-18T22:29:25;25.47;72.10
61000;SHT31;46879;45.658;11.814;2023-09-18T22:34:25;25.46;72.06
61000;SHT31;46879;45.658;11.814;2023-09-18T22:56:53;25.45;71.78
61000;SHT31;46879;45.658;11.814;2023-09-18T23:01:54;25.43;71.95
61000;SHT31;46879;45.658;11.814;2023-09-18T23:06:54;25.43;71.92
61000;SHT31;46879;45.658;11.814;2023-09-18T23:11:58;25.46;71.70
61000;SHT31;46879;45.658;11.814;2023-09-18T23:17:06;25.43;71.42
61000;SHT31;46879;45.658;11.814;2023-09-18T23:22:09;25.43;71.77
61000;SHT31;46879;45.658;11.814;2023-09-18T23:27:12;25.43;71.93
61000;SHT31;46879;45.658;11.814;2023-09-18T23:32:12;25.41;71.72
61000;SHT31;46879;45.658;11.814;2023-09-18T23:37:13;25.43;71.64
61000;SHT31;46879;45.658;11.814;2023-09-18T23:42:14;25.45;71.60
61000;SHT31;46879;45.658;11.814;2023-09-18T23:47:15;25.43;71.29
61000;SHT31;46879;45.658;11.814;2023-09-18T23:52:15;25.45;71.17
61000;SHT31;46879;45.658;11.814;2023-09-18T23:57:16;25.43;71.07
